sensor_id;sensor_type;location;lat;lon;timestamp;temperature;humidity
31731;DHT22;18310;55.586;12.286;2022-12-29T00:01:42;10.70;78.80
31731;DHT22;18310;55.586;12.286;2022-12-29T00:04:45;11.50;78.80
31731;DHT22;18310;55.586;12.286;2022-12-29T00:07:50;10.60;78.30
31731;DHT22;18310;55.586;12.286;2022-12-29T00:10:54;10.60;78.50
31731;DHT22;18310;55.586;12.286;2022-12-29T00:13:57;10.60;78.30
31731;DHT22;18310;55.586;12.286;2022-12-29T00:17:24;10.60;78.40
31731;DHT22;18310;55.586;12.286;2022-12-29T00:20:28;10.50;78.30
31731;DHT22;18310;55.586;12.286;2022-12-29T00:23:49;10.50;78.40
31731;DHT22;18310;55.586;12.286;2022-12-29T00:27:26;10.50;78.40
31731;DHT22;18310;55.586;12.286;2022-12-29T00:30:47;10.50;78.40
31731;DHT22;18310;55.586;12.286;2022-12-29T00:34:10;10.40;78.40
31731;DHT22;18310;55.586;12.286;2022-12-29T00:37:31;10.40;78.50
31731;DHT22;18310;55.586;12.286;2022-12-29T00:40:49;10.40;78.40
31731;DHT22;18310;55.586;12.286;2022-12-29T00:44:12;10.20;78.40
31731;DHT22;18310;55.586;12.286;2022-12-29T00:47:16;10.20;78.50
31731;DHT22;18310;55.586;12.286;2022-12-29T00:50:19;10.30;78.60
31731;DHT22;18310;55.586;12.286;2022-12-29T00:53:21;10.30;78.80
31731;DHT22;18310;55.586;12.286;2022-12-29T00:56:25;10.30;78.80
31731;DHT22;18310;55.586;12.286;2022-12-29T00:59:28;10.30;78.90
31731;DHT22;18310;55.586;12.286;2022-12-29T01:02:31;10.60;79.10
31731;DHT22;18310;55.586;12.286;2022-12-29T01:05:36;10.20;79.40
31731;DHT22;18310;55.586;12.286;2022-12-29T01:08:39;10.20;79.00
31731;DHT22;18310;55.586;12.286;2022-12-29T01:11:43;10.20;79.00
31731;DHT22;18310;55.586;12.286;2022-12-29T01:14:45;10.20;79.00
31731;DHT22;18310;55.586;12.286;2022-12-29T01:17:48;10.20;79.00
31731;DHT22;18310;55.586;12.286;2022-12-29T01:20:58;10.20;79.00
31731;DHT22;18310;55.586;12.286;2022-12-29T01:24:02;11.10;79.70
31731;DHT22;18310;55.586;12.286;2022-12-29T01:27:06;10.10;79.00
31731;DHT22;18310;55.586;12.286;2022-12-29T01:30:10;10.10;79.10
31731;DHT22;18310;55.586;12.286;2022-12-29T01:33:15;11.00;79.60
31731;DHT22;18310;55.586;12.286;2022-12-29T01:36:19;10.10;79.20
31731;DHT22;18310;55.586;12.286;2022-12-29T01:39:23;10.10;79.20
31731;DHT22;18310;55.586;12.286;2022-12-29T01:42:27;10.10;79.20
31731;DHT22;18310;55.586;12.286;2022-12-29T01:45:30;10.10;79.30
31731;DHT22;18310;55.586;12.286;2022-12-29T01:48:34;9.50;78.90
31731;DHT22;18310;55.586;12.286;2022-12-29T01:51:40;10.10;79.20
31731;DHT22;18310;55.586;12.286;2022-12-29T01:54:50;10.10;79.30
31731;DHT22;18310;55.586;12.286;2022-12-29T01:58:01;10.50;79.60
31731;DHT22;18310;55.586;12.286;2022-12-29T02:01:07;10.00;79.40
31731;DHT22;18310;55.586;12.286;2022-12-29T02:04:11;10.00;79.40
31731;DHT22;18310;55.586;12.286;2022-12-29T02:07:18;10.00;79.40
31731;DHT22;18310;55.586;12.286;2022-12-29T02:10:24;9.90;79.50
31731;DHT22;18310;55.586;12.286;2022-12-29T02:13:31;10.00;79.50
31731;DHT22;18310;55.586;12.286;2022-12-29T02:16:45;9.90;79.50
31731;DHT22;18310;55.586;12.286;2022-12-29T02:24:22;10.00;80.00
31731;DHT22;18310;55.586;12.286;2022-12-29T02:28:07;10.00;80.00
31731;DHT22;18310;55.586;12.286;2022-12-29T02:31:31;10.00;80.10
31731;DHT22;18310;55.586;12.286;2022-12-29T02:34:47;10.00;80.10
31731;DHT22;18310;55.586;12.286;2022-12-29T02:38:03;11.10;80.80
31731;DHT22;18310;55.586;12.286;2022-12-29T02:41:19;10.10;80.20
31731;DHT22;18310;55.586;12.286;2022-12-29T02:44:34;10.10;80.60
31731;DHT22;18310;55.586;12.286;2022-12-29T02:47:49;10.20;80.20
31731;DHT22;18310;55.586;12.286;2022-12-29T02:51:00;10.20;80.20
31731;DHT22;18310;55.586;12.286;2022-12-29T02:54:05;9.70;79.90
31731;DHT22;18310;55.586;12.286;2022-12-29T02:57:32;10.30;80.20
31731;DHT22;18310;55.586;12.286;2022-12-29T03:00:39;10.30;80.40
31731;DHT22;18310;55.586;12.286;2022-12-29T03:04:04;10.40;80.30
31731;DHT22;18310;55.586;12.286;2022-12-29T03:07:24;10.40;80.40
31731;DHT22;18310;55.586;12.286;2022-12-29T03:10:41;10.50;80.30
31731;DHT22;18310;55.586;12.286;2022-12-29T03:13:52;10.50;80.30
31731;DHT22;18310;55.586;12.286;2022-12-29T03:17:24;10.60;80.20
31731;DHT22;18310;55.586;12.286;2022-12-29T03:20:37;10.60;80.20
31731;DHT22;18310;55.586;12.286;2022-12-29T03:23:46;10.70;80.30
31731;DHT22;18310;55.586;12.286;2022-12-29T03:26:53;10.70;80.20
31731;DHT22;18310;55.586;12.286;2022-12-29T03:30:01;10.80;80.20
31731;DHT22;18310;55.586;12.286;2022-12-29T03:33:08;10.70;80.00
31731;DHT22;18310;55.586;12.286;2022-12-29T03:36:22;10.80;80.10
31731;DHT22;18310;55.586;12.286;2022-12-29T03:39:29;11.10;80.20
31731;DHT22;18310;55.586;12.286;2022-12-29T03:42:35;10.80;80.00
31731;DHT22;18310;55.586;12.286;2022-12-29T03:45:39;10.90;79.90
31731;DHT22;18310;55.586;12.286;2022-12-29T03:48:42;10.90;79.80
31731;DHT22;18310;55.586;12.286;2022-12-29T03:51:46;10.90;79.70
31731;DHT22;18310;55.586;12.286;2022-12-29T03:54:52;10.90;79.70
31731;DHT22;18310;55.586;12.286;2022-12-29T03:57:56;11.00;79.70
31731;DHT22;18310;55.586;12.286;2022-12-29T04:00:59;11.00;79.60
31731;DHT22;18310;55.586;12.286;2022-12-29T04:04:03;11.10;79.90
31731;DHT22;18310;55.586;12.286;2022-12-29T04:07:08;11.10;79.50
31731;DHT22;18310;55.586;12.286;2022-12-29T04:10:11;11.10;79.70
31731;DHT22;18310;55.586;12.286;2022-12-29T04:13:14;11.10;79.60
31731;DHT22;18310;55.586;12.286;2022-12-29T04:16:18;10.50;79.20
31731;DHT22;18310;55.586;12.286;2022-12-29T04:19:22;11.10;79.60
31731;DHT22;18310;55.586;12.286;2022-12-29T04:22:27;11.20;79.70
31731;DHT22;18310;55.586;12.286;2022-12-29T04:25:30;11.20;79.70
31731;DHT22;18310;55.586;12.286;2022-12-29T04:28:35;11.20;79.60
31731;DHT22;18310;55.586;12.286;2022-12-29T04:31:39;11.70;79.80
31731;DHT22;18310;55.586;12.286;2022-12-29T04:34:42;11.30;79.60
31731;DHT22;18310;55.586;12.286;2022-12-29T04:37:47;11.20;79.80
31731;DHT22;18310;55.586;12.286;2022-12-29T04:40:50;11.30;79.40
31731;DHT22;18310;55.586;12.286;2022-12-29T04:43:54;11.30;79.40
31731;DHT22;18310;55.586;12.286;2022-12-29T04:46:57;11.30;79.40
31731;DHT22;18310;55.586;12.286;2022-12-29T04:50:00;11.40;79.50
31731;DHT22;18310;55.586;12.286;2022-12-29T04:53:05;11.40;79.50
31731;DHT22;18310;55.586;12.286;2022-12-29T04:56:08;11.40;79.30
31731;DHT22;18310;55.586;12.286;2022-12-29T04:59:11;11.50;79.30
31731;DHT22;18310;55.586;12.286;2022-12-29T05:02:15;11.40;79.20
31731;DHT22;18310;55.586;12.286;2022-12-29T05:05:19;11.40;79.20
31731;DHT22;18310;55.586;12.286;2022-12-29T05:08:24;11.00;78.90
31731;DHT22;18310;55.586;12.286;2022-12-29T05:11:29;11.60;79.20
31731;DHT22;18310;55.586;12.286;2022-12-29T05:14:32;11.40;79.00
31731;DHT22;18310;55.586;12.286;2022-12-29T05:17:36;11.40;78.90
31731;DHT22;18310;55.586;12.286;2022-12-29T05:20:39;11.50;79.00
31731;DHT22;18310;55.586;12.286;2022-12-29T05:23:44;11.40;78.90
31731;DHT22;18310;55.586;12.286;2022-12-29T05:26:47;11.40;78.90
31731;DHT22;18310;55.586;12.286;2022-12-29T05:29:50;11.40;78.90
31731;DHT22;18310;55.586;12.286;2022-12-29T05:32:53;11.40;78.90
31731;DHT22;18310;55.586;12.286;2022-12-29T05:35:56;11.70;79.10
31731;DHT22;18310;55.586;12.286;2022-12-29T05:39:00;11.40;79.10
31731;DHT22;18310;55.586;12.286;2022-12-29T05:42:03;10.50;78.50
31731;DHT22;18310;55.586;12.286;2022-12-29T05:45:08;11.30;78.90
31731;DHT22;18310;55.586;12.286;2022-12-29T05:48:11;11.30;79.40
31731;DHT22;18310;55.586;12.286;2022-12-29T05:51:14;11.30;79.00
31731;DHT22;18310;55.586;12.286;2022-12-29T05:54:20;11.30;79.10
31731;DHT22;18310;55.586;12.286;2022-12-29T05:57:23;11.40;79.20
31731;DHT22;18310;55.586;12.286;2022-12-29T06:00:26;11.80;79.30
31731;DHT22;18310;55.586;12.286;2022-12-29T06:03:29;11.40;79.30
31731;DHT22;18310;55.586;12.286;2022-12-29T06:06:32;11.00;79.10
31731;DHT22;18310;55.586;12.286;2022-12-29T06:09:38;11.40;79.40
31731;DHT22;18310;55.586;12.286;2022-12-29T06:12:41;11.50;79.50
31731;DHT22;18310;55.586;12.286;2022-12-29T06:15:44;11.50;79.50
31731;DHT22;18310;55.586;12.286;2022-12-29T06:18:47;11.50;79.50
31731;DHT22;18310;55.586;12.286;2022-12-29T06:21:50;11.60;79.40
31731;DHT22;18310;55.586;12.286;2022-12-29T06:24:56;11.60;79.30
31731;DHT22;18310;55.586;12.286;2022-12-29T06:28:05;11.60;79.30
31731;DHT22;18310;55.586;12.286;2022-12-29T06:31:09;11.60;79.10
31731;DHT22;18310;55.586;12.286;2022-12-29T06:34:13;11.70;79.10
31731;DHT22;18310;55.586;12.286;2022-12-29T06:37:16;11.70;79.10
31731;DHT22;18310;55.586;12.286;2022-12-29T06:40:20;11.70;78.90
31731;DHT22;18310;55.586;12.286;2022-12-29T06:43:24;11.70;78.80
31731;DHT22;18310;55.586;12.286;2022-12-29T06:46:27;11.70;78.80
31731;DHT22;18310;55.586;12.286;2022-12-29T06:49:30;11.70;78.80
31731;DHT22;18310;55.586;12.286;2022-12-29T06:52:34;11.70;78.80
31731;DHT22;18310;55.586;12.286;2022-12-29T06:55:39;11.70;78.70
31731;DHT22;18310;55.586;12.286;2022-12-29T06:58:43;11.70;78.60
31731;DHT22;18310;55.586;12.286;2022-12-29T07:01:46;11.70;78.60
31731;DHT22;18310;55.586;12.286;2022-12-29T07:04:50;11.70;78.60
31731;DHT22;18310;55.586;12.286;2022-12-29T07:07:53;11.80;78.60
31731;DHT22;18310;55.586;12.286;2022-12-29T07:10:58;11.70;78.60
31731;DHT22;18310;55.586;12.286;2022-12-29T07:14:03;12.50;79.00
31731;DHT22;18310;55.586;12.286;2022-12-29T07:17:06;11.80;78.60
31731;DHT22;18310;55.586;12.286;2022-12-29T07:20:10;11.70;78.60
31731;DHT22;18310;55.586;12.286;2022-12-29T07:23:13;11.80;78.60
31731;DHT22;18310;55.586;12.286;2022-12-29T07:26:18;11.80;78.50
31731;DHT22;18310;55.586;12.286;2022-12-29T07:29:21;11.80;78.60
31731;DHT22;18310;55.586;12.286;2022-12-29T07:32:24;11.80;78.60
31731;DHT22;18310;55.586;12.286;2022-12-29T07:35:28;11.80;78.50
31731;DHT22;18310;55.586;12.286;2022-12-29T07:38:31;11.80;78.60
31731;DHT22;18310;55.586;12.286;2022-12-29T07:41:35;11.80;78.80
31731;DHT22;18310;55.586;12.286;2022-12-29T07:44:38;11.80;79.00
31731;DHT22;18310;55.586;12.286;2022-12-29T07:47:41;11.00;78.40
31731;DHT22;18310;55.586;12.286;2022-12-29T07:50:44;11.80;78.90
31731;DHT22;18310;55.586;12.286;2022-12-29T07:53:47;11.90;79.00
31731;DHT22;18310;55.586;12.286;2022-12-29T07:56:52;12.80;79.50
31731;DHT22;18310;55.586;12.286;2022-12-29T07:59:55;11.90;79.00
31731;DHT22;18310;55.586;12.286;2022-12-29T08:02:58;12.80;79.50
31731;DHT22;18310;55.586;12.286;2022-12-29T08:06:01;12.00;79.10
31731;DHT22;18310;55.586;12.286;2022-12-29T08:09:05;12.00;79.10
31731;DHT22;18310;55.586;12.286;2022-12-29T08:12:21;12.00;79.20
31731;DHT22;18310;55.586;12.286;2022-12-29T08:15:24;12.10;79.20
31731;DHT22;18310;55.586;12.286;2022-12-29T08:18:33;12.10;79.20
31731;DHT22;18310;55.586;12.286;2022-12-29T08:21:36;12.10;79.10
31731;DHT22;18310;55.586;12.286;2022-12-29T08:24:39;12.20;79.10
31731;DHT22;18310;55.586;12.286;2022-12-29T08:27:44;12.20;79.10
31731;DHT22;18310;55.586;12.286;2022-12-29T08:30:47;12.20;79.10
31731;DHT22;18310;55.586;12.286;2022-12-29T08:33:51;12.30;79.20
31731;DHT22;18310;55.586;12.286;2022-12-29T08:36:54;12.30;79.10
31731;DHT22;18310;55.586;12.286;2022-12-29T08:39:57;12.30;79.00
31731;DHT22;18310;55.586;12.286;2022-12-29T08:43:06;12.30;78.80
31731;DHT22;18310;55.586;12.286;2022-12-29T08:46:09;12.40;78.80
31731;DHT22;18310;55.586;12.286;2022-12-29T08:49:13;12.40;78.70
31731;DHT22;18310;55.586;12.286;2022-12-29T08:52:16;12.30;78.50
31731;DHT22;18310;55.586;12.286;2022-12-29T08:55:19;12.40;78.60
31731;DHT22;18310;55.586;12.286;2022-12-29T08:58:24;12.40;78.60
31731;DHT22;18310;55.586;12.286;2022-12-29T09:01:28;12.40;78.60
31731;DHT22;18310;55.586;12.286;2022-12-29T09:04:32;12.50;79.30
31731;DHT22;18310;55.586;12.286;2022-12-29T09:07:35;12.50;78.90
31731;DHT22;18310;55.586;12.286;2022-12-29T09:10:38;12.50;78.60
31731;DHT22;18310;55.586;12.286;2022-12-29T09:13:42;12.50;78.60
31731;DHT22;18310;55.586;12.286;2022-12-29T09:16:46;13.60;79.10
31731;DHT22;18310;55.586;12.286;2022-12-29T09:20:07;12.50;78.30
31731;DHT22;18310;55.586;12.286;2022-12-29T09:23:11;12.60;78.20
31731;DHT22;18310;55.586;12.286;2022-12-29T09:26:14;12.60;78.20
31731;DHT22;18310;55.586;12.286;2022-12-29T09:29:18;12.50;78.20
31731;DHT22;18310;55.586;12.286;2022-12-29T09:32:22;12.50;78.30
31731;DHT22;18310;55.586;12.286;2022-12-29T09:35:30;12.50;78.40
31731;DHT22;18310;55.586;12.286;2022-12-29T09:38:33;11.60;78.00
31731;DHT22;18310;55.586;12.286;2022-12-29T09:41:38;12.60;78.50
31731;DHT22;18310;55.586;12.286;2022-12-29T09:44:55;12.70;78.40
31731;DHT22;18310;55.586;12.286;2022-12-29T09:48:13;12.70;78.30
31731;DHT22;18310;55.586;12.286;2022-12-29T09:51:23;12.70;78.00
31731;DHT22;18310;55.586;12.286;2022-12-29T09:54:37;12.70;78.10
31731;DHT22;18310;55.586;12.286;2022-12-29T09:57:53;12.70;78.00
31731;DHT22;18310;55.586;12.286;2022-12-29T10:01:02;12.80;77.90
31731;DHT22;18310;55.586;12.286;2022-12-29T10:04:07;12.80;77.90
31731;DHT22;18310;55.586;12.286;2022-12-29T10:07:17;12.80;77.90
31731;DHT22;18310;55.586;12.286;2022-12-29T10:10:36;12.80;77.60
31731;DHT22;18310;55.586;12.286;2022-12-29T10:13:55;12.80;77.50
31731;DHT22;18310;55.586;12.286;2022-12-29T10:17:26;11.70;76.90
31731;DHT22;18310;55.586;12.286;2022-12-29T10:20:47;12.80;77.40
31731;DHT22;18310;55.586;12.286;2022-12-29T10:23:56;12.80;77.30
31731;DHT22;18310;55.586;12.286;2022-12-29T10:27:01;12.90;77.30
31731;DHT22;18310;55.586;12.286;2022-12-29T10:30:12;13.40;77.50
31731;DHT22;18310;55.586;12.286;2022-12-29T10:33:20;12.90;76.90
31731;DHT22;18310;55.586;12.286;2022-12-29T10:36:33;12.90;77.00
31731;DHT22;18310;55.586;12.286;2022-12-29T10:39:43;12.80;76.90
31731;DHT22;18310;55.586;12.286;2022-12-29T10:42:53;12.80;76.50
31731;DHT22;18310;55.586;12.286;2022-12-29T10:46:01;12.80;76.40
31731;DHT22;18310;55.586;12.286;2022-12-29T10:49:14;12.70;76.30
31731;DHT22;18310;55.586;12.286;2022-12-29T10:52:23;12.70;76.20
31731;DHT22;18310;55.586;12.286;2022-12-29T10:55:32;12.70;76.50
31731;DHT22;18310;55.586;12.286;2022-12-29T10:58:39;12.70;76.60
31731;DHT22;18310;55.586;12.286;2022-12-29T11:01:58;12.70;76.80
31731;DHT22;18310;55.586;12.286;2022-12-29T11:05:28;12.70;76.30
31731;DHT22;18310;55.586;12.286;2022-12-29T11:08:38;13.70;77.30
31731;DHT22;18310;55.586;12.286;2022-12-29T11:11:47;12.70;76.70
31731;DHT22;18310;55.586;12.286;2022-12-29T11:15:06;12.70;76.50
31731;DHT22;18310;55.586;12.286;2022-12-29T11:18:21;12.50;76.10
31731;DHT22;18310;55.586;12.286;2022-12-29T11:21:35;12.80;76.40
31731;DHT22;18310;55.586;12.286;2022-12-29T11:24:44;12.80;76.20
31731;DHT22;18310;55.586;12.286;2022-12-29T11:27:56;12.80;76.10
31731;DHT22;18310;55.586;12.286;2022-12-29T11:31:02;12.80;75.90
31731;DHT22;18310;55.586;12.286;2022-12-29T11:34:06;12.80;75.90
31731;DHT22;18310;55.586;12.286;2022-12-29T11:37:13;12.80;75.60
31731;DHT22;18310;55.586;12.286;2022-12-29T11:40:19;12.80;75.30
31731;DHT22;18310;55.586;12.286;2022-12-29T11:43:28;12.90;75.20
31731;DHT22;18310;55.586;12.286;2022-12-29T11:46:37;13.00;75.00
31731;DHT22;18310;55.586;12.286;2022-12-29T11:49:41;13.10;75.40
31731;DHT22;18310;55.586;12.286;2022-12-29T11:52:46;13.30;74.90
31731;DHT22;18310;55.586;12.286;2022-12-29T11:55:53;13.30;74.20
31731;DHT22;18310;55.586;12.286;2022-12-29T12:02:52;13.30;72.30
31731;DHT22;18310;55.586;12.286;2022-12-29T12:06:00;13.30;72.50
31731;DHT22;18310;55.586;12.286;2022-12-29T12:09:10;13.10;72.90
31731;DHT22;18310;55.586;12.286;2022-12-29T12:12:22;13.10;73.20
31731;DHT22;18310;55.586;12.286;2022-12-29T12:15:34;13.10;73.40
31731;DHT22;18310;55.586;12.286;2022-12-29T12:18:49;13.10;73.80
31731;DHT22;18310;55.586;12.286;2022-12-29T12:21:59;13.10;73.10
31731;DHT22;18310;55.586;12.286;2022-12-29T12:25:14;13.90;72.90
31731;DHT22;18310;55.586;12.286;2022-12-29T12:28:28;13.10;72.00
31731;DHT22;18310;55.586;12.286;2022-12-29T12:31:46;13.00;72.40
31731;DHT22;18310;55.586;12.286;2022-12-29T12:34:53;13.10;72.50
31731;DHT22;18310;55.586;12.286;2022-12-29T12:38:07;13.10;72.80
31731;DHT22;18310;55.586;12.286;2022-12-29T12:41:27;13.70;72.40
31731;DHT22;18310;55.586;12.286;2022-12-29T12:44:47;13.20;72.30
31731;DHT22;18310;55.586;12.286;2022-12-29T12:48:07;12.30;71.60
31731;DHT22;18310;55.586;12.286;2022-12-29T12:51:30;13.00;72.10
31731;DHT22;18310;55.586;12.286;2022-12-29T12:54:53;13.00;71.70
31731;DHT22;18310;55.586;12.286;2022-12-29T12:58:12;13.00;71.50
31731;DHT22;18310;55.586;12.286;2022-12-29T13:01:37;12.90;71.60
31731;DHT22;18310;55.586;12.286;2022-12-29T13:05:06;12.90;71.20
31731;DHT22;18310;55.586;12.286;2022-12-29T13:08:45;12.60;70.50
31731;DHT22;18310;55.586;12.286;2022-12-29T13:12:18;13.40;71.10
31731;DHT22;18310;55.586;12.286;2022-12-29T13:15:42;12.80;71.20
31731;DHT22;18310;55.586;12.286;2022-12-29T13:18:56;12.80;71.10
31731;DHT22;18310;55.586;12.286;2022-12-29T13:22:09;12.80;71.50
31731;DHT22;18310;55.586;12.286;2022-12-29T13:25:26;12.70;71.40
31731;DHT22;18310;55.586;12.286;2022-12-29T13:28:40;12.70;71.40
31731;DHT22;18310;55.586;12.286;2022-12-29T13:32:07;12.70;71.50
31731;DHT22;18310;55.586;12.286;2022-12-29T13:35:52;12.70;71.30
31731;DHT22;18310;55.586;12.286;2022-12-29T13:39:03;12.70;71.30
31731;DHT22;18310;55.586;12.286;2022-12-29T13:42:21;12.70;71.40
31731;DHT22;18310;55.586;12.286;2022-12-29T13:45:29;12.60;71.60
31731;DHT22;18310;55.586;12.286;2022-12-29T13:48:39;12.60;71.50
31731;DHT22;18310;55.586;12.286;2022-12-29T13:51:50;12.60;71.50
31731;DHT22;18310;55.586;12.286;2022-12-29T13:54:59;12.60;71.80
31731;DHT22;18310;55.586;12.286;2022-12-29T13:58:18;12.50;72.20
31731;DHT22;18310;55.586;12.286;2022-12-29T14:01:31;12.50;71.60
31731;DHT22;18310;55.586;12.286;2022-12-29T14:04:55;12.50;71.80
31731;DHT22;18310;55.586;12.286;2022-12-29T14:08:03;12.50;71.70
31731;DHT22;18310;55.586;12.286;2022-12-29T14:11:09;12.40;72.00
31731;DHT22;18310;55.586;12.286;2022-12-29T14:14:19;11.90;71.80
31731;DHT22;18310;55.586;12.286;2022-12-29T14:17:24;13.10;72.30
31731;DHT22;18310;55.586;12.286;2022-12-29T14:20:29;12.20;72.10
31731;DHT22;18310;55.586;12.286;2022-12-29T14:23:38;12.30;72.00
31731;DHT22;18310;55.586;12.286;2022-12-29T14:26:43;12.30;72.00
31731;DHT22;18310;55.586;12.286;2022-12-29T14:29:47;13.00;72.70
31731;DHT22;18310;55.586;12.286;2022-12-29T14:33:02;12.30;72.30
31731;DHT22;18310;55.586;12.286;2022-12-29T14:36:26;12.20;72.10
31731;DHT22;18310;55.586;12.286;2022-12-29T14:39:38;12.20;72.00
31731;DHT22;18310;55.586;12.286;2022-12-29T14:42:42;12.20;72.40
31731;DHT22;18310;55.586;12.286;2022-12-29T14:45:56;12.20;72.60
31731;DHT22;18310;55.586;12.286;2022-12-29T14:49:01;12.20;72.80
31731;DHT22;18310;55.586;12.286;2022-12-29T14:52:13;12.10;72.70
31731;DHT22;18310;55.586;12.286;2022-12-29T14:55:36;11.50;72.60
31731;DHT22;18310;55.586;12.286;2022-12-29T14:58:47;12.00;73.20
31731;DHT22;18310;55.586;12.286;2022-12-29T15:01:55;12.00;73.40
31731;DHT22;18310;55.586;12.286;2022-12-29T15:05:00;11.90;73.50
31731;DHT22;18310;55.586;12.286;2022-12-29T15:08:07;11.90;73.70
31731;DHT22;18310;55.586;12.286;2022-12-29T15:11:14;11.90;74.00
31731;DHT22;18310;55.586;12.286;2022-12-29T15:14:34;11.80;74.10
31731;DHT22;18310;55.586;12.286;2022-12-29T15:17:39;11.80;74.80
31731;DHT22;18310;55.586;12.286;2022-12-29T15:20:42;11.80;74.50
31731;DHT22;18310;55.586;12.286;2022-12-29T15:23:47;11.70;74.70
31731;DHT22;18310;55.586;12.286;2022-12-29T15:26:52;11.70;74.90
31731;DHT22;18310;55.586;12.286;2022-12-29T15:29:58;12.00;75.30
31731;DHT22;18310;55.586;12.286;2022-12-29T15:33:17;11.70;75.30
31731;DHT22;18310;55.586;12.286;2022-12-29T15:36:23;11.70;75.70
31731;DHT22;18310;55.586;12.286;2022-12-29T15:39:30;11.60;75.40
31731;DHT22;18310;55.586;12.286;2022-12-29T15:42:50;11.10;75.20
31731;DHT22;18310;55.586;12.286;2022-12-29T15:46:03;11.60;75.80
31731;DHT22;18310;55.586;12.286;2022-12-29T15:49:08;11.90;75.70
31731;DHT22;18310;55.586;12.286;2022-12-29T15:52:18;11.60;75.80
31731;DHT22;18310;55.586;12.286;2022-12-29T15:55:28;11.60;75.80
31731;DHT22;18310;55.586;12.286;2022-12-29T15:58:40;12.20;76.20
31731;DHT22;18310;55.586;12.286;2022-12-29T16:01:46;11.50;75.90
31731;DHT22;18310;55.586;12.286;2022-12-29T16:04:50;11.50;75.70
31731;DHT22;18310;55.586;12.286;2022-12-29T16:08:28;11.50;75.70
31731;DHT22;18310;55.586;12.286;2022-12-29T16:11:38;11.50;75.80
31731;DHT22;18310;55.586;12.286;2022-12-29T16:14:45;11.40;75.60
31731;DHT22;18310;55.586;12.286;2022-12-29T16:17:52;11.40;75.70
31731;DHT22;18310;55.586;12.286;2022-12-29T16:20:57;11.40;75.70
31731;DHT22;18310;55.586;12.286;2022-12-29T16:24:02;11.30;75.70
31731;DHT22;18310;55.586;12.286;2022-12-29T16:27:19;11.30;75.60
31731;DHT22;18310;55.586;12.286;2022-12-29T16:30:26;11.30;75.60
31731;DHT22;18310;55.586;12.286;2022-12-29T16:33:44;11.30;75.60
31731;DHT22;18310;55.586;12.286;2022-12-29T16:36:58;11.30;75.60
31731;DHT22;18310;55.586;12.286;2022-12-29T16:40:27;11.50;75.50
31731;DHT22;18310;55.586;12.286;2022-12-29T16:43:35;10.40;74.80
31731;DHT22;18310;55.586;12.286;2022-12-29T16:46:55;11.30;75.10
31731;DHT22;18310;55.586;12.286;2022-12-29T16:50:12;11.30;75.20
31731;DHT22;18310;55.586;12.286;2022-12-29T16:53:32;11.30;75.20
31731;DHT22;18310;55.586;12.286;2022-12-29T16:56:43;11.30;75.00
31731;DHT22;18310;55.586;12.286;2022-12-29T16:59:51;11.20;74.90
31731;DHT22;18310;55.586;12.286;2022-12-29T17:02:58;11.20;75.00
31731;DHT22;18310;55.586;12.286;2022-12-29T17:06:04;11.10;75.00
31731;DHT22;18310;55.586;12.286;2022-12-29T17:09:18;11.10;74.90
31731;DHT22;18310;55.586;12.286;2022-12-29T17:12:26;11.10;74.70
31731;DHT22;18310;55.586;12.286;2022-12-29T17:15:32;11.00;74.60
31731;DHT22;18310;55.586;12.286;2022-12-29T17:18:36;10.90;74.70
31731;DHT22;18310;55.586;12.286;2022-12-29T17:21:39;10.90;75.00
31731;DHT22;18310;55.586;12.286;2022-12-29T17:24:43;12.10;75.80
31731;DHT22;18310;55.586;12.286;2022-12-29T17:27:48;10.80;75.10
31731;DHT22;18310;55.586;12.286;2022-12-29T17:30:59;10.80;75.10
31731;DHT22;18310;55.586;12.286;2022-12-29T17:34:05;10.80;75.10
31731;DHT22;18310;55.586;12.286;2022-12-29T17:37:29;10.80;75.20
31731;DHT22;18310;55.586;12.286;2022-12-29T17:40:35;11.30;75.60
31731;DHT22;18310;55.586;12.286;2022-12-29T17:43:38;10.80;75.40
31731;DHT22;18310;55.586;12.286;2022-12-29T17:46:43;10.80;75.40
31731;DHT22;18310;55.586;12.286;2022-12-29T17:49:46;10.80;75.20
31731;DHT22;18310;55.586;12.286;2022-12-29T17:52:51;10.80;75.10
31731;DHT22;18310;55.586;12.286;2022-12-29T17:56:02;10.80;74.90
31731;DHT22;18310;55.586;12.286;2022-12-29T17:59:10;10.70;74.70
31731;DHT22;18310;55.586;12.286;2022-12-29T18:02:28;10.70;74.60
31731;DHT22;18310;55.586;12.286;2022-12-29T18:05:33;10.70;74.50
31731;DHT22;18310;55.586;12.286;2022-12-29T18:08:37;10.60;74.50
31731;DHT22;18310;55.586;12.286;2022-12-29T18:11:42;10.50;74.50
31731;DHT22;18310;55.586;12.286;2022-12-29T18:14:46;10.30;74.40
31731;DHT22;18310;55.586;12.286;2022-12-29T18:17:53;10.50;74.60
31731;DHT22;18310;55.586;12.286;2022-12-29T18:21:02;10.40;74.60
31731;DHT22;18310;55.586;12.286;2022-12-29T18:24:08;10.30;74.60
31731;DHT22;18310;55.586;12.286;2022-12-29T18:27:14;10.30;74.70
31731;DHT22;18310;55.586;12.286;2022-12-29T18:30:19;10.20;74.70
31731;DHT22;18310;55.586;12.286;2022-12-29T18:33:24;10.20;74.80
31731;DHT22;18310;55.586;12.286;2022-12-29T18:36:28;10.10;74.90
31731;DHT22;18310;55.586;12.286;2022-12-29T18:39:32;9.60;74.70
31731;DHT22;18310;55.586;12.286;2022-12-29T18:42:35;9.90;75.10
31731;DHT22;18310;55.586;12.286;2022-12-29T18:45:38;9.60;75.00
31731;DHT22;18310;55.586;12.286;2022-12-29T18:48:43;10.00;75.30
31731;DHT22;18310;55.586;12.286;2022-12-29T18:51:46;10.00;75.30
31731;DHT22;18310;55.586;12.286;2022-12-29T18:54:49;10.00;75.40
31731;DHT22;18310;55.586;12.286;2022-12-29T18:57:53;10.10;75.40
31731;DHT22;18310;55.586;12.286;2022-12-29T19:00:56;9.90;75.50
31731;DHT22;18310;55.586;12.286;2022-12-29T19:04:02;9.90;75.50
31731;DHT22;18310;55.586;12.286;2022-12-29T19:07:05;9.90;75.60
31731;DHT22;18310;55.586;12.286;2022-12-29T19:10:08;9.90;75.60
31731;DHT22;18310;55.586;12.286;2022-12-29T19:13:15;9.80;75.60
31731;DHT22;18310;55.586;12.286;2022-12-29T19:16:20;9.80;75.70
31731;DHT22;18310;55.586;12.286;2022-12-29T19:19:27;9.80;75.70
31731;DHT22;18310;55.586;12.286;2022-12-29T19:22:29;9.90;75.80
31731;DHT22;18310;55.586;12.286;2022-12-29T19:25:33;9.80;75.70
31731;DHT22;18310;55.586;12.286;2022-12-29T19:28:36;10.80;76.30
31731;DHT22;18310;55.586;12.286;2022-12-29T19:31:39;9.80;75.70
31731;DHT22;18310;55.586;12.286;2022-12-29T19:34:44;9.80;75.70
31731;DHT22;18310;55.586;12.286;2022-12-29T19:37:50;8.90;75.20
31731;DHT22;18310;55.586;12.286;2022-12-29T19:40:53;9.80;75.60
31731;DHT22;18310;55.586;12.286;2022-12-29T19:43:57;9.80;75.60